createdAt,value
2022-12-27T00:05:26.352Z,9.46
2022-12-27T00:12:27.960Z,9.37
2022-12-27T00:19:29.615Z,9.43
2022-12-27T00:26:32.612Z,9.18
2022-12-27T00:33:35.382Z,9.09
2022-12-27T00:40:39.762Z,9.13
2022-12-27T00:47:41.413Z,8.94
2022-12-27T00:54:43.010Z,8.83
2022-12-27T01:01:45.404Z,8.79
2022-12-27T01:08:47.325Z,8.78
2022-12-27T01:15:48.984Z,8.56
2022-12-27T01:22:50.637Z,8.66
2022-12-27T01:29:52.315Z,8.40
2022-12-27T01:36:54.009Z,8.33
2022-12-27T01:43:55.624Z,8.21
2022-12-27T01:51:00.045Z,8.11
2022-12-27T01:58:22.452Z,8.05
2022-12-27T02:05:24.808Z,7.82
2022-12-27T02:12:26.530Z,7.87
2022-12-27T02:19:51.430Z,7.95
2022-12-27T02:27:13.723Z,7.82
2022-12-27T02:34:29.565Z,7.84
2022-12-27T02:41:51.262Z,7.65
2022-12-27T02:49:16.005Z,7.73
2022-12-27T02:56:58.377Z,7.87
2022-12-27T03:04:28.106Z,7.64
2022-12-27T03:11:51.334Z,7.71
2022-12-27T03:19:35.992Z,7.63
2022-12-27T03:26:38.070Z,7.43
2022-12-27T03:33:39.990Z,7.45
2022-12-27T03:41:16.387Z,7.38
2022-12-27T03:48:20.679Z,7.36
2022-12-27T03:55:22.380Z,7.33
2022-12-27T04:02:24.226Z,7.46
2022-12-27T04:09:44.419Z,7.37
2022-12-27T04:17:05.548Z,7.45
2022-12-27T04:24:25.735Z,7.29
2022-12-27T04:31:46.104Z,7.32
2022-12-27T04:38:48.019Z,7.30
2022-12-27T04:46:10.719Z,7.35
2022-12-27T04:53:32.646Z,7.35
2022-12-27T05:00:52.913Z,7.32
2022-12-27T05:08:13.185Z,7.46
2022-12-27T05:15:14.962Z,7.49
2022-12-27T05:22:35.419Z,7.20
2022-12-27T05:29:37.141Z,7.33
2022-12-27T05:36:38.849Z,7.31
2022-12-27T05:43:40.874Z,7.29
2022-12-27T05:50:42.534Z,6.92
2022-12-27T05:57:47.369Z,7.25
2022-12-27T06:04:49.193Z,7.46
2022-12-27T06:11:50.903Z,7.19
2022-12-27T06:18:53.065Z,7.22
2022-12-27T06:25:54.838Z,7.09
2022-12-27T06:32:56.531Z,7.22
2022-12-27T06:39:58.253Z,7.31
2022-12-27T06:46:59.906Z,7.16
2022-12-27T06:54:01.569Z,7.08
2022-12-27T07:01:22.481Z,7.12
2022-12-27T07:08:24.321Z,7.15
2022-12-27T07:15:25.946Z,6.96
2022-12-27T07:22:27.842Z,6.91
2022-12-27T07:29:29.663Z,6.90
2022-12-27T07:36:37.805Z,7.17
2022-12-27T07:43:39.510Z,7.17
2022-12-27T07:50:41.178Z,7.18
2022-12-27T07:57:42.867Z,7.36
2022-12-27T08:04:44.530Z,7.41
2022-12-27T08:11:46.269Z,7.51
2022-12-27T08:18:48.171Z,7.61
2022-12-27T08:25:50.172Z,7.62
2022-12-27T08:32:51.849Z,7.71
2022-12-27T08:39:57.713Z,7.72
2022-12-27T08:47:04.432Z,7.81
2022-12-27T08:54:06.135Z,7.82
2022-12-27T09:01:08.201Z,7.68
2022-12-27T09:08:10.927Z,8.06
2022-12-27T09:15:12.765Z,7.71
2022-12-27T09:22:14.564Z,7.83
2022-12-27T09:29:16.191Z,7.84
2022-12-27T09:36:19.746Z,8.12
2022-12-27T09:43:27.486Z,8.03
2022-12-27T09:50:42.107Z,8.20
2022-12-27T09:57:44.300Z,8.29
2022-12-27T10:05:18.718Z,8.54
2022-12-27T10:12:38.357Z,8.71
2022-12-27T10:19:58.853Z,8.56
2022-12-27T10:27:00.513Z,8.69
2022-12-27T10:34:05.076Z,8.67
2022-12-27T10:41:22.161Z,8.81
2022-12-27T10:48:36.344Z,8.76
2022-12-27T10:55:49.221Z,8.83
2022-12-27T11:02:53.822Z,9.06
2022-12-27T11:10:23.356Z,8.89
2022-12-27T11:17:47.557Z,8.83
2022-12-27T11:24:50.449Z,8.88
2022-12-27T11:31:52.326Z,8.99
2022-12-27T11:38:54.041Z,9.19
2022-12-27T11:45:55.643Z,9.21
2022-12-27T11:53:26.494Z,9.05
2022-12-27T12:00:31.257Z,9.17
2022-12-27T12:08:00.998Z,9.07
2022-12-27T12:15:42.915Z,9.15
2022-12-27T12:22:55.695Z,9.09
2022-12-27T12:30:36.410Z,8.83
2022-12-27T12:37:49.842Z,9.19
2022-12-27T12:44:54.360Z,9.53
2022-12-27T12:52:04.052Z,9.35
2022-12-27T12:59:34.563Z,9.62
2022-12-27T13:07:03.639Z,9.82
2022-12-27T13:14:27.608Z,9.72
2022-12-27T13:21:57.619Z,9.72
2022-12-27T13:29:15.873Z,9.61
2022-12-27T13:36:19.973Z,9.54
2022-12-27T13:43:30.618Z,9.45
2022-12-27T13:50:51.067Z,9.49
2022-12-27T13:58:29.663Z,9.38
2022-12-27T14:06:01.845Z,9.50
2022-12-27T14:13:07.735Z,9.46
2022-12-27T14:20:36.218Z,9.57
2022-12-27T14:28:15.490Z,9.57
2022-12-27T14:35:28.627Z,9.11
2022-12-27T14:42:45.583Z,9.21
2022-12-27T14:50:05.420Z,9.25
2022-12-27T14:57:36.129Z,9.30
2022-12-27T15:04:55.528Z,9.09
2022-12-27T15:12:06.218Z,9.30
2022-12-27T15:19:11.776Z,9.09
2022-12-27T15:26:34.646Z,9.01
2022-12-27T15:34:12.609Z,8.89
2022-12-27T15:41:31.979Z,8.94
2022-12-27T16:12:19.930Z,8.58
2022-12-27T16:27:37.879Z,8.26
2022-12-27T16:34:39.537Z,8.48
2022-12-27T16:41:50.149Z,8.41
2022-12-27T16:49:29.102Z,8.34
2022-12-27T16:56:38.751Z,8.24
2022-12-27T17:03:40.329Z,7.96
2022-12-27T17:10:41.845Z,8.01
2022-12-27T17:17:44.170Z,8.11
2022-12-27T17:24:46.299Z,7.93
2022-12-27T17:32:09.399Z,7.95
2022-12-27T17:39:20.303Z,7.97
2022-12-27T17:46:49.951Z,7.52
2022-12-27T17:54:11.320Z,7.81
2022-12-27T18:01:13.269Z,7.83
2022-12-27T18:08:36.075Z,7.62
2022-12-27T18:15:37.716Z,7.52
2022-12-27T18:22:39.377Z,7.47
2022-12-27T18:29:40.955Z,7.65
2022-12-27T18:36:47.463Z,7.47
2022-12-27T18:43:50.532Z,7.38
2022-12-27T18:50:52.868Z,7.30
2022-12-27T18:58:20.239Z,7.56
2022-12-27T19:05:25.311Z,7.21
2022-12-27T19:12:34.092Z,7.26
2022-12-27T19:19:35.800Z,7.15
2022-12-27T19:26:37.573Z,7.04
2022-12-27T19:33:39.258Z,7.10
2022-12-27T19:40:40.881Z,7.07
2022-12-27T19:47:42.515Z,7.06
2022-12-27T19:54:44.133Z,7.06
2022-12-27T20:01:45.978Z,7.23
2022-12-27T20:08:50.846Z,7.02
2022-12-27T20:15:53.592Z,7.08
2022-12-27T20:22:55.177Z,6.86
2022-12-27T20:29:56.934Z,7.10
2022-12-27T20:37:00.005Z,6.94
2022-12-27T20:44:01.669Z,6.97
2022-12-27T20:51:23.107Z,7.08
2022-12-27T20:58:24.709Z,7.18
2022-12-27T21:05:26.449Z,7.46
2022-12-27T21:12:28.115Z,7.42
2022-12-27T21:19:29.898Z,7.48
2022-12-27T21:26:33.877Z,7.40
2022-12-27T21:33:38.417Z,7.20
2022-12-27T21:40:40.197Z,7.36
2022-12-27T21:47:42.559Z,7.27
2022-12-27T21:54:44.261Z,7.27
2022-12-27T22:01:50.306Z,7.43
2022-12-27T22:08:58.491Z,7.43
2022-12-27T22:16:01.807Z,7.55
2022-12-27T22:23:03.624Z,7.38
2022-12-27T22:30:11.197Z,7.26
2022-12-27T22:37:12.878Z,7.09
2022-12-27T22:44:14.893Z,7.31
2022-12-27T22:51:18.083Z,7.23
2022-12-27T22:58:19.790Z,7.15
2022-12-27T23:05:21.453Z,7.26
2022-12-27T23:12:23.308Z,7.23
2022-12-27T23:19:25.660Z,7.20
2022-12-27T23:26:27.310Z,7.29
2022-12-27T23:33:28.996Z,7.22
2022-12-27T23:40:31.082Z,7.14
2022-12-27T23:47:32.814Z,7.29
2022-12-27T23:54:34.526Z,7.36
